Decoded Metar for TGPY (POINT SALINES in GRENADA) (IATA:GND) | Meteo·Mobile Aviation Weather
aviador You're here:

TGPY Decoded Metar

POINT SALINES in GRENADA
Report Time2019-10-19 22:00:00
UTC Time2019-10-19 22:55:58
Flight Rules vfr VFR
Wind060° at 10 kt
W.Decomp.*RWY 10: 9.0 kt HW 4.4 kt LCW
Visibility9999 m
Phenomena:Vicinity showers
Clouds:Scattered 016 Hf
Expected CloudBase > 1,200 ft AGL from Temp-Dew spread
CeilingNone
Temp27°C (ISA +12)
Dew Point24°C (84% RH)
Heat Index30.1°C
QNH1012 hPa
Density Alt1,837 ft
Elevation23 ft
Report Wrong Elevation
Raw Report
TGPY 192200Z 06010KT 9999 SCT016 27/24 Q1012 NOSIG VCSH NE=

Extra information for TGPY:More info

Metar Taf Metar & Taf Last 4 Metars F.Rules Stats Wind Profile Meteogram Temp Stats Airport Information Weather charts Add Link Nearby VenuesMetar ALERT Operation Metar Decoded Social comments